sensor_id;sensor_type;location;lat;lon;timestamp;temperature;humidity
20773;DHT22;10546;50.674;4.616;2022-12-18T07:40:31;-3.60;99.90
20773;DHT22;10546;50.674;4.616;2022-12-18T07:42:57;-3.60;99.90
20773;DHT22;10546;50.674;4.616;2022-12-18T07:45:23;-3.50;99.90
20773;DHT22;10546;50.674;4.616;2022-12-18T07:47:50;-3.40;99.90
20773;DHT22;10546;50.674;4.616;2022-12-18T07:50:16;-3.50;99.90
20773;DHT22;10546;50.674;4.616;2022-12-18T07:52:42;-3.40;99.90
20773;DHT22;10546;50.674;4.616;2022-12-18T07:55:08;-3.20;99.90
20773;DHT22;10546;50.674;4.616;2022-12-18T07:57:33;-3.40;99.90
20773;DHT22;10546;50.674;4.616;2022-12-18T07:59:59;-3.40;99.90
20773;DHT22;10546;50.674;4.616;2022-12-18T08:02:25;-3.40;99.90
20773;DHT22;10546;50.674;4.616;2022-12-18T08:04:50;-3.30;99.90
20773;DHT22;10546;50.674;4.616;2022-12-18T08:07:16;-3.20;99.90
20773;DHT22;10546;50.674;4.616;2022-12-18T08:09:42;-3.00;99.90
20773;DHT22;10546;50.674;4.616;2022-12-18T08:12:09;-2.90;99.90
20773;DHT22;10546;50.674;4.616;2022-12-18T08:14:34;-2.70;99.90
20773;DHT22;10546;50.674;4.616;2022-12-18T08:17:00;-2.60;99.90
20773;DHT22;10546;50.674;4.616;2022-12-18T08:19:25;-2.40;99.90
20773;DHT22;10546;50.674;4.616;2022-12-18T08:21:51;-2.00;99.90
20773;DHT22;10546;50.674;4.616;2022-12-18T08:24:16;-1.50;99.90
20773;DHT22;10546;50.674;4.616;2022-12-18T08:26:42;-1.40;99.90
20773;DHT22;10546;50.674;4.616;2022-12-18T08:29:09;-1.50;99.90
20773;DHT22;10546;50.674;4.616;2022-12-18T08:31:35;-1.40;99.90
20773;DHT22;10546;50.674;4.616;2022-12-18T08:34:00;-1.50;99.90
20773;DHT22;10546;50.674;4.616;2022-12-18T08:36:26;-1.50;99.90
20773;DHT22;10546;50.674;4.616;2022-12-18T08:38:52;-1.40;99.90
20773;DHT22;10546;50.674;4.616;2022-12-18T08:41:18;-1.30;99.90
20773;DHT22;10546;50.674;4.616;2022-12-18T08:43:44;-1.20;99.90
20773;DHT22;10546;50.674;4.616;2022-12-18T08:46:36;-1.10;99.90
20773;DHT22;10546;50.674;4.616;2022-12-18T08:49:03;-1.00;99.90
20773;DHT22;10546;50.674;4.616;2022-12-18T08:51:29;-1.00;99.90
20773;DHT22;10546;50.674;4.616;2022-12-18T08:53:54;-0.90;99.90
20773;DHT22;10546;50.674;4.616;2022-12-18T08:56:20;-0.80;99.90
20773;DHT22;10546;50.674;4.616;2022-12-18T08:58:46;-0.70;99.90
20773;DHT22;10546;50.674;4.616;2022-12-18T09:01:12;-0.60;99.90
20773;DHT22;10546;50.674;4.616;2022-12-18T09:03:39;-0.80;99.90
20773;DHT22;10546;50.674;4.616;2022-12-18T09:06:05;-0.70;99.90
20773;DHT22;10546;50.674;4.616;2022-12-18T09:08:31;-0.70;99.90
20773;DHT22;10546;50.674;4.616;2022-12-18T09:10:57;-0.70;99.90
20773;DHT22;10546;50.674;4.616;2022-12-18T09:13:22;-0.60;99.90
20773;DHT22;10546;50.674;4.616;2022-12-18T09:15:52;-0.60;99.90
20773;DHT22;10546;50.674;4.616;2022-12-18T09:18:20;-0.50;99.90
20773;DHT22;10546;50.674;4.616;2022-12-18T09:20:46;-0.50;99.90
20773;DHT22;10546;50.674;4.616;2022-12-18T09:23:12;-0.30;99.90
20773;DHT22;10546;50.674;4.616;2022-12-18T09:25:38;-0.10;99.90
20773;DHT22;10546;50.674;4.616;2022-12-18T09:28:06;-0.10;99.90
20773;DHT22;10546;50.674;4.616;2022-12-18T09:30:37;0.10;99.90
20773;DHT22;10546;50.674;4.616;2022-12-18T09:33:03;0.00;99.90
20773;DHT22;10546;50.674;4.616;2022-12-18T09:35:28;0.30;99.90
20773;DHT22;10546;50.674;4.616;2022-12-18T09:37:54;0.20;99.90
20773;DHT22;10546;50.674;4.616;2022-12-18T09:40:24;0.50;99.90
20773;DHT22;10546;50.674;4.616;2022-12-18T09:43:02;0.30;99.90
20773;DHT22;10546;50.674;4.616;2022-12-18T09:45:33;0.30;99.90
20773;DHT22;10546;50.674;4.616;2022-12-18T09:48:00;0.50;99.90
20773;DHT22;10546;50.674;4.616;2022-12-18T09:50:32;0.50;99.90
20773;DHT22;10546;50.674;4.616;2022-12-18T09:53:02;0.40;99.90
20773;DHT22;10546;50.674;4.616;2022-12-18T09:55:42;0.30;99.90
20773;DHT22;10546;50.674;4.616;2022-12-18T09:58:24;0.20;99.90
20773;DHT22;10546;50.674;4.616;2022-12-18T10:00:53;0.30;99.90
20773;DHT22;10546;50.674;4.616;2022-12-18T10:03:19;0.40;99.90
20773;DHT22;10546;50.674;4.616;2022-12-18T10:08:33;0.40;99.90
20773;DHT22;10546;50.674;4.616;2022-12-18T10:14:46;0.30;99.90
20773;DHT22;10546;50.674;4.616;2022-12-18T10:25:34;0.60;99.90
20773;DHT22;10546;50.674;4.616;2022-12-18T10:28:16;0.60;99.90
20773;DHT22;10546;50.674;4.616;2022-12-18T10:30:43;0.60;99.90
20773;DHT22;10546;50.674;4.616;2022-12-18T10:33:21;0.70;99.90
20773;DHT22;10546;50.674;4.616;2022-12-18T10:35:49;0.70;99.90
20773;DHT22;10546;50.674;4.616;2022-12-18T10:40:59;0.70;99.90
20773;DHT22;10546;50.674;4.616;2022-12-18T10:43:36;0.60;99.90
20773;DHT22;10546;50.674;4.616;2022-12-18T10:51:05;0.70;99.90
20773;DHT22;10546;50.674;4.616;2022-12-18T10:53:33;0.70;99.90
20773;DHT22;10546;50.674;4.616;2022-12-18T10:55:59;0.80;99.90
20773;DHT22;10546;50.674;4.616;2022-12-18T11:01:14;0.80;99.90
20773;DHT22;10546;50.674;4.616;2022-12-18T11:03:42;0.90;99.90
20773;DHT22;10546;50.674;4.616;2022-12-18T11:06:13;0.90;99.90
20773;DHT22;10546;50.674;4.616;2022-12-18T11:08:41;1.10;99.90
20773;DHT22;10546;50.674;4.616;2022-12-18T11:11:16;1.20;99.90
20773;DHT22;10546;50.674;4.616;2022-12-18T11:13:57;1.10;99.90
20773;DHT22;10546;50.674;4.616;2022-12-18T11:16:24;1.00;99.90
20773;DHT22;10546;50.674;4.616;2022-12-18T11:18:50;1.00;99.90
20773;DHT22;10546;50.674;4.616;2022-12-18T11:21:16;1.00;99.90
20773;DHT22;10546;50.674;4.616;2022-12-18T11:23:52;1.10;99.90
20773;DHT22;10546;50.674;4.616;2022-12-18T11:26:19;1.30;99.90
20773;DHT22;10546;50.674;4.616;2022-12-18T11:29:09;1.20;99.90
20773;DHT22;10546;50.674;4.616;2022-12-18T11:31:35;1.20;99.90
20773;DHT22;10546;50.674;4.616;2022-12-18T11:34:26;1.30;99.90
20773;DHT22;10546;50.674;4.616;2022-12-18T11:36:53;1.40;99.90
20773;DHT22;10546;50.674;4.616;2022-12-18T11:39:31;1.40;99.90
20773;DHT22;10546;50.674;4.616;2022-12-18T11:47:28;1.50;99.90
20773;DHT22;10546;50.674;4.616;2022-12-18T11:49:58;1.40;99.90
20773;DHT22;10546;50.674;4.616;2022-12-18T11:52:36;1.30;99.90
20773;DHT22;10546;50.674;4.616;2022-12-18T11:55:28;1.30;99.90
20773;DHT22;10546;50.674;4.616;2022-12-18T11:58:03;1.30;99.90
20773;DHT22;10546;50.674;4.616;2022-12-18T12:00:37;1.50;99.90
20773;DHT22;10546;50.674;4.616;2022-12-18T12:13:36;1.50;99.90
20773;DHT22;10546;50.674;4.616;2022-12-18T12:21:28;1.70;99.90
20773;DHT22;10546;50.674;4.616;2022-12-18T12:27:36;1.50;99.90
20773;DHT22;10546;50.674;4.616;2022-12-18T12:30:20;1.40;99.90
20773;DHT22;10546;50.674;4.616;2022-12-18T12:48:48;1.50;99.90
20773;DHT22;10546;50.674;4.616;2022-12-18T12:51:19;1.40;99.90
20773;DHT22;10546;50.674;4.616;2022-12-18T12:53:45;1.50;99.90
20773;DHT22;10546;50.674;4.616;2022-12-18T12:56:13;1.50;99.90
20773;DHT22;10546;50.674;4.616;2022-12-18T12:59:04;1.50;99.90
20773;DHT22;10546;50.674;4.616;2022-12-18T13:01:48;1.50;99.90
20773;DHT22;10546;50.674;4.616;2022-12-18T13:04:30;1.50;99.90
20773;DHT22;10546;50.674;4.616;2022-12-18T13:09:32;1.50;99.90
20773;DHT22;10546;50.674;4.616;2022-12-18T13:12:10;1.60;99.90
20773;DHT22;10546;50.674;4.616;2022-12-18T13:15:12;1.50;99.90
20773;DHT22;10546;50.674;4.616;2022-12-18T13:17:39;1.60;99.90
20773;DHT22;10546;50.674;4.616;2022-12-18T13:22:44;1.50;99.90
20773;DHT22;10546;50.674;4.616;2022-12-18T13:28:07;1.30;99.90
20773;DHT22;10546;50.674;4.616;2022-12-18T13:36:08;1.40;99.90
20773;DHT22;10546;50.674;4.616;2022-12-18T13:38:39;1.40;99.90
20773;DHT22;10546;50.674;4.616;2022-12-18T13:43:43;1.40;99.90
20773;DHT22;10546;50.674;4.616;2022-12-18T13:46:44;1.30;99.90
20773;DHT22;10546;50.674;4.616;2022-12-18T13:51:46;1.20;99.90
20773;DHT22;10546;50.674;4.616;2022-12-18T13:54:35;1.20;99.90
20773;DHT22;10546;50.674;4.616;2022-12-18T13:57:02;1.10;99.90
20773;DHT22;10546;50.674;4.616;2022-12-18T13:59:39;1.10;99.90
20773;DHT22;10546;50.674;4.616;2022-12-18T14:02:16;1.20;99.90
20773;DHT22;10546;50.674;4.616;2022-12-18T14:04:45;1.10;99.90
20773;DHT22;10546;50.674;4.616;2022-12-18T14:07:21;1.10;99.90
20773;DHT22;10546;50.674;4.616;2022-12-18T14:10:00;1.20;99.90
20773;DHT22;10546;50.674;4.616;2022-12-18T14:12:33;1.20;99.90
20773;DHT22;10546;50.674;4.616;2022-12-18T14:15:32;1.30;99.90
20773;DHT22;10546;50.674;4.616;2022-12-18T14:21:00;1.40;99.90
20773;DHT22;10546;50.674;4.616;2022-12-18T14:25:58;1.30;99.90
20773;DHT22;10546;50.674;4.616;2022-12-18T14:28:24;1.40;99.90
20773;DHT22;10546;50.674;4.616;2022-12-18T14:30:52;1.40;99.90
20773;DHT22;10546;50.674;4.616;2022-12-18T14:33:23;1.50;99.90
20773;DHT22;10546;50.674;4.616;2022-12-18T14:36:01;1.30;99.90
20773;DHT22;10546;50.674;4.616;2022-12-18T14:38:38;1.30;99.90
20773;DHT22;10546;50.674;4.616;2022-12-18T14:41:15;1.40;99.90
20773;DHT22;10546;50.674;4.616;2022-12-18T14:43:43;1.50;99.90
20773;DHT22;10546;50.674;4.616;2022-12-18T14:48:56;1.50;99.90
20773;DHT22;10546;50.674;4.616;2022-12-18T14:51:24;1.40;99.90
20773;DHT22;10546;50.674;4.616;2022-12-18T14:53:58;1.40;99.90
20773;DHT22;10546;50.674;4.616;2022-12-18T14:59:06;1.40;99.90
20773;DHT22;10546;50.674;4.616;2022-12-18T15:01:45;1.40;99.90
20773;DHT22;10546;50.674;4.616;2022-12-18T15:09:37;1.20;99.90
20773;DHT22;10546;50.674;4.616;2022-12-18T15:12:03;1.20;99.90
20773;DHT22;10546;50.674;4.616;2022-12-18T15:14:37;1.20;99.90
20773;DHT22;10546;50.674;4.616;2022-12-18T15:17:13;1.20;99.90
20773;DHT22;10546;50.674;4.616;2022-12-18T15:19:42;1.10;99.90
20773;DHT22;10546;50.674;4.616;2022-12-18T15:24:53;1.00;99.90
20773;DHT22;10546;50.674;4.616;2022-12-18T15:27:26;1.00;99.90
20773;DHT22;10546;50.674;4.616;2022-12-18T15:32:34;1.00;99.90
20773;DHT22;10546;50.674;4.616;2022-12-18T15:37:43;1.10;99.90
20773;DHT22;10546;50.674;4.616;2022-12-18T15:40:13;1.10;99.90
20773;DHT22;10546;50.674;4.616;2022-12-18T15:42:39;1.00;99.90
20773;DHT22;10546;50.674;4.616;2022-12-18T15:45:23;1.00;99.90
20773;DHT22;10546;50.674;4.616;2022-12-18T15:47:48;1.00;99.90
20773;DHT22;10546;50.674;4.616;2022-12-18T15:50:14;1.00;99.90
20773;DHT22;10546;50.674;4.616;2022-12-18T15:52:43;1.00;99.90
20773;DHT22;10546;50.674;4.616;2022-12-18T15:55:15;1.10;99.90
20773;DHT22;10546;50.674;4.616;2022-12-18T15:57:59;1.10;99.90
20773;DHT22;10546;50.674;4.616;2022-12-18T16:00:25;1.10;99.90
20773;DHT22;10546;50.674;4.616;2022-12-18T16:02:50;1.10;99.90
20773;DHT22;10546;50.674;4.616;2022-12-18T16:05:18;1.10;99.90
20773;DHT22;10546;50.674;4.616;2022-12-18T16:07:44;1.10;99.90
20773;DHT22;10546;50.674;4.616;2022-12-18T16:10:11;1.10;99.90
20773;DHT22;10546;50.674;4.616;2022-12-18T16:12:37;1.20;99.90
20773;DHT22;10546;50.674;4.616;2022-12-18T16:15:03;1.20;99.90
20773;DHT22;10546;50.674;4.616;2022-12-18T16:17:29;1.20;99.90
20773;DHT22;10546;50.674;4.616;2022-12-18T16:19:55;1.20;99.90
20773;DHT22;10546;50.674;4.616;2022-12-18T16:22:23;1.20;99.90
20773;DHT22;10546;50.674;4.616;2022-12-18T16:24:51;1.20;99.90
20773;DHT22;10546;50.674;4.616;2022-12-18T16:27:17;1.20;99.90
20773;DHT22;10546;50.674;4.616;2022-12-18T16:29:44;1.20;99.90
20773;DHT22;10546;50.674;4.616;2022-12-18T16:32:13;1.30;99.90
20773;DHT22;10546;50.674;4.616;2022-12-18T16:34:39;1.20;99.90
20773;DHT22;10546;50.674;4.616;2022-12-18T16:37:06;1.20;99.90
20773;DHT22;10546;50.674;4.616;2022-12-18T16:39:33;1.20;99.90
20773;DHT22;10546;50.674;4.616;2022-12-18T16:42:03;1.30;99.90
20773;DHT22;10546;50.674;4.616;2022-12-18T16:44:29;1.30;99.90
20773;DHT22;10546;50.674;4.616;2022-12-18T16:46:55;1.30;99.90
20773;DHT22;10546;50.674;4.616;2022-12-18T16:49:27;1.30;99.90
20773;DHT22;10546;50.674;4.616;2022-12-18T16:51:53;1.40;99.90
20773;DHT22;10546;50.674;4.616;2022-12-18T16:54:19;1.40;99.90
20773;DHT22;10546;50.674;4.616;2022-12-18T16:56:44;1.40;99.90
20773;DHT22;10546;50.674;4.616;2022-12-18T16:59:12;1.40;99.90
20773;DHT22;10546;50.674;4.616;2022-12-18T17:01:38;1.40;99.90
20773;DHT22;10546;50.674;4.616;2022-12-18T17:04:05;1.40;99.90
20773;DHT22;10546;50.674;4.616;2022-12-18T17:06:33;1.40;99.90
20773;DHT22;10546;50.674;4.616;2022-12-18T17:09:06;1.50;99.90
20773;DHT22;10546;50.674;4.616;2022-12-18T17:11:33;1.60;99.90
20773;DHT22;10546;50.674;4.616;2022-12-18T17:14:05;1.40;99.90
20773;DHT22;10546;50.674;4.616;2022-12-18T17:16:31;1.40;99.90
20773;DHT22;10546;50.674;4.616;2022-12-18T17:18:56;1.40;99.90
20773;DHT22;10546;50.674;4.616;2022-12-18T17:21:22;1.50;99.90
20773;DHT22;10546;50.674;4.616;2022-12-18T17:23:47;1.50;99.90
20773;DHT22;10546;50.674;4.616;2022-12-18T17:26:14;1.60;99.90
20773;DHT22;10546;50.674;4.616;2022-12-18T17:28:40;1.40;99.90
20773;DHT22;10546;50.674;4.616;2022-12-18T17:31:13;1.50;99.90
20773;DHT22;10546;50.674;4.616;2022-12-18T17:33:39;1.50;99.90
20773;DHT22;10546;50.674;4.616;2022-12-18T17:36:05;1.50;99.90
20773;DHT22;10546;50.674;4.616;2022-12-18T17:38:31;1.50;99.90
20773;DHT22;10546;50.674;4.616;2022-12-18T17:41:05;1.40;99.90
20773;DHT22;10546;50.674;4.616;2022-12-18T17:43:31;1.50;99.90
20773;DHT22;10546;50.674;4.616;2022-12-18T17:46:02;1.50;99.90
20773;DHT22;10546;50.674;4.616;2022-12-18T17:48:28;1.50;99.90
20773;DHT22;10546;50.674;4.616;2022-12-18T17:50:54;1.50;99.90
20773;DHT22;10546;50.674;4.616;2022-12-18T17:53:20;1.60;99.90
20773;DHT22;10546;50.674;4.616;2022-12-18T17:55:58;1.60;99.90
20773;DHT22;10546;50.674;4.616;2022-12-18T17:58:30;1.60;99.90
20773;DHT22;10546;50.674;4.616;2022-12-18T18:00:56;1.60;99.90
20773;DHT22;10546;50.674;4.616;2022-12-18T18:03:21;1.60;99.90
20773;DHT22;10546;50.674;4.616;2022-12-18T18:05:47;1.70;99.90
20773;DHT22;10546;50.674;4.616;2022-12-18T18:08:13;1.60;99.90
20773;DHT22;10546;50.674;4.616;2022-12-18T18:10:39;1.50;99.90
20773;DHT22;10546;50.674;4.616;2022-12-18T18:13:08;1.50;99.90
20773;DHT22;10546;50.674;4.616;2022-12-18T18:15:59;1.50;99.90
20773;DHT22;10546;50.674;4.616;2022-12-18T18:18:25;1.50;99.90
20773;DHT22;10546;50.674;4.616;2022-12-18T18:20:51;1.50;99.90
20773;DHT22;10546;50.674;4.616;2022-12-18T18:23:16;1.50;99.90
20773;DHT22;10546;50.674;4.616;2022-12-18T18:25:42;1.50;99.90
20773;DHT22;10546;50.674;4.616;2022-12-18T18:28:07;1.50;99.90
20773;DHT22;10546;50.674;4.616;2022-12-18T18:30:35;1.60;99.90
20773;DHT22;10546;50.674;4.616;2022-12-18T18:33:01;1.50;99.90
20773;DHT22;10546;50.674;4.616;2022-12-18T18:35:26;1.50;99.90
20773;DHT22;10546;50.674;4.616;2022-12-18T18:37:52;1.60;99.90
20773;DHT22;10546;50.674;4.616;2022-12-18T18:40:17;1.50;99.90
20773;DHT22;10546;50.674;4.616;2022-12-18T18:42:45;1.60;99.90
20773;DHT22;10546;50.674;4.616;2022-12-18T18:45:11;1.60;99.90
20773;DHT22;10546;50.674;4.616;2022-12-18T18:47:37;1.60;99.90
20773;DHT22;10546;50.674;4.616;2022-12-18T18:50:03;1.60;99.90
20773;DHT22;10546;50.674;4.616;2022-12-18T18:52:28;1.60;99.90
20773;DHT22;10546;50.674;4.616;2022-12-18T18:54:54;1.60;99.90
20773;DHT22;10546;50.674;4.616;2022-12-18T18:57:19;1.70;99.90
20773;DHT22;10546;50.674;4.616;2022-12-18T18:59:45;1.80;99.90
20773;DHT22;10546;50.674;4.616;2022-12-18T19:02:12;1.80;99.90
20773;DHT22;10546;50.674;4.616;2022-12-18T19:04:39;1.80;99.90
20773;DHT22;10546;50.674;4.616;2022-12-18T19:07:05;1.90;99.90
20773;DHT22;10546;50.674;4.616;2022-12-18T19:09:31;1.90;99.90
20773;DHT22;10546;50.674;4.616;2022-12-18T19:11:57;1.90;99.90
20773;DHT22;10546;50.674;4.616;2022-12-18T19:14:42;1.90;99.90
20773;DHT22;10546;50.674;4.616;2022-12-18T19:17:08;1.80;99.90
20773;DHT22;10546;50.674;4.616;2022-12-18T19:19:34;1.80;99.90
20773;DHT22;10546;50.674;4.616;2022-12-18T19:21:59;1.80;99.90
20773;DHT22;10546;50.674;4.616;2022-12-18T19:24:26;1.90;99.90
20773;DHT22;10546;50.674;4.616;2022-12-18T19:26:52;1.90;99.90
20773;DHT22;10546;50.674;4.616;2022-12-18T19:29:18;1.90;99.90
20773;DHT22;10546;50.674;4.616;2022-12-18T19:31:44;1.90;99.90
20773;DHT22;10546;50.674;4.616;2022-12-18T19:34:09;1.90;99.90
20773;DHT22;10546;50.674;4.616;2022-12-18T19:36:37;1.90;99.90
20773;DHT22;10546;50.674;4.616;2022-12-18T19:39:15;1.80;99.90
20773;DHT22;10546;50.674;4.616;2022-12-18T19:41:41;1.90;99.90
20773;DHT22;10546;50.674;4.616;2022-12-18T19:44:07;1.90;99.90
20773;DHT22;10546;50.674;4.616;2022-12-18T19:46:32;2.00;99.90
20773;DHT22;10546;50.674;4.616;2022-12-18T19:49:00;2.00;99.90
20773;DHT22;10546;50.674;4.616;2022-12-18T19:51:27;1.90;99.90
20773;DHT22;10546;50.674;4.616;2022-12-18T19:53:55;1.90;99.90
20773;DHT22;10546;50.674;4.616;2022-12-18T19:56:23;2.00;99.90
20773;DHT22;10546;50.674;4.616;2022-12-18T19:58:50;2.00;99.90
20773;DHT22;10546;50.674;4.616;2022-12-18T20:01:17;1.90;99.90
20773;DHT22;10546;50.674;4.616;2022-12-18T20:03:43;2.00;99.90
20773;DHT22;10546;50.674;4.616;2022-12-18T20:08:45;2.00;99.90
20773;DHT22;10546;50.674;4.616;2022-12-18T20:11:11;2.00;99.90
20773;DHT22;10546;50.674;4.616;2022-12-18T20:13:37;1.90;99.90
20773;DHT22;10546;50.674;4.616;2022-12-18T20:16:03;1.90;99.90
20773;DHT22;10546;50.674;4.616;2022-12-18T20:18:29;1.90;99.90
20773;DHT22;10546;50.674;4.616;2022-12-18T20:20:55;1.90;99.90
20773;DHT22;10546;50.674;4.616;2022-12-18T20:23:21;2.00;99.90
20773;DHT22;10546;50.674;4.616;2022-12-18T20:25:51;1.90;99.90
20773;DHT22;10546;50.674;4.616;2022-12-18T20:28:18;1.90;99.90
20773;DHT22;10546;50.674;4.616;2022-12-18T20:30:44;1.90;99.90
20773;DHT22;10546;50.674;4.616;2022-12-18T20:33:09;2.00;99.90
20773;DHT22;10546;50.674;4.616;2022-12-18T20:35:35;2.00;99.90
20773;DHT22;10546;50.674;4.616;2022-12-18T20:38:00;2.00;99.90
20773;DHT22;10546;50.674;4.616;2022-12-18T20:40:26;2.00;99.90
20773;DHT22;10546;50.674;4.616;2022-12-18T20:42:52;2.00;99.90
20773;DHT22;10546;50.674;4.616;2022-12-18T20:45:20;2.10;99.90
20773;DHT22;10546;50.674;4.616;2022-12-18T20:47:45;2.10;99.90
20773;DHT22;10546;50.674;4.616;2022-12-18T20:50:11;2.10;99.90
20773;DHT22;10546;50.674;4.616;2022-12-18T20:52:37;2.10;99.90
20773;DHT22;10546;50.674;4.616;2022-12-18T20:55:04;2.20;99.90
20773;DHT22;10546;50.674;4.616;2022-12-18T20:57:29;2.20;99.90
20773;DHT22;10546;50.674;4.616;2022-12-18T20:59:55;2.20;99.90
20773;DHT22;10546;50.674;4.616;2022-12-18T21:02:21;2.30;99.90
20773;DHT22;10546;50.674;4.616;2022-12-18T21:04:47;2.20;99.90
20773;DHT22;10546;50.674;4.616;2022-12-18T21:07:12;2.20;99.90
20773;DHT22;10546;50.674;4.616;2022-12-18T21:09:38;2.30;99.90
20773;DHT22;10546;50.674;4.616;2022-12-18T21:12:10;2.30;99.90
20773;DHT22;10546;50.674;4.616;2022-12-18T21:14:54;2.30;99.90
20773;DHT22;10546;50.674;4.616;2022-12-18T21:17:20;2.30;99.90
20773;DHT22;10546;50.674;4.616;2022-12-18T21:19:46;2.30;99.90
20773;DHT22;10546;50.674;4.616;2022-12-18T21:22:12;2.30;99.90
20773;DHT22;10546;50.674;4.616;2022-12-18T21:24:37;2.40;99.90
20773;DHT22;10546;50.674;4.616;2022-12-18T21:27:03;2.40;99.90
20773;DHT22;10546;50.674;4.616;2022-12-18T21:29:29;2.50;99.90
20773;DHT22;10546;50.674;4.616;2022-12-18T21:31:54;2.50;99.90
20773;DHT22;10546;50.674;4.616;2022-12-18T21:34:23;2.50;99.90
20773;DHT22;10546;50.674;4.616;2022-12-18T21:36:50;2.50;99.90
20773;DHT22;10546;50.674;4.616;2022-12-18T21:39:16;2.60;99.90
20773;DHT22;10546;50.674;4.616;2022-12-18T21:41:41;2.60;99.90
20773;DHT22;10546;50.674;4.616;2022-12-18T21:44:25;2.60;99.90
20773;DHT22;10546;50.674;4.616;2022-12-18T21:46:51;2.60;99.90
20773;DHT22;10546;50.674;4.616;2022-12-18T21:49:18;2.60;99.90
20773;DHT22;10546;50.674;4.616;2022-12-18T21:51:48;2.70;99.90
20773;DHT22;10546;50.674;4.616;2022-12-18T21:54:15;2.70;99.90
20773;DHT22;10546;50.674;4.616;2022-12-18T22:01:48;2.90;99.90
20773;DHT22;10546;50.674;4.616;2022-12-18T22:04:14;2.80;99.90
20773;DHT22;10546;50.674;4.616;2022-12-18T22:06:40;2.80;99.90
20773;DHT22;10546;50.674;4.616;2022-12-18T22:09:08;2.80;99.90
20773;DHT22;10546;50.674;4.616;2022-12-18T22:11:34;2.90;99.90
20773;DHT22;10546;50.674;4.616;2022-12-18T22:14:00;2.90;99.90
20773;DHT22;10546;50.674;4.616;2022-12-18T22:16:27;2.90;99.90
20773;DHT22;10546;50.674;4.616;2022-12-18T22:18:53;2.90;99.90
20773;DHT22;10546;50.674;4.616;2022-12-18T22:21:27;2.90;99.90
20773;DHT22;10546;50.674;4.616;2022-12-18T22:24:01;2.90;99.90
20773;DHT22;10546;50.674;4.616;2022-12-18T22:26:28;2.80;99.90
20773;DHT22;10546;50.674;4.616;2022-12-18T22:28:54;2.80;99.90
20773;DHT22;10546;50.674;4.616;2022-12-18T22:31:39;2.80;99.90
20773;DHT22;10546;50.674;4.616;2022-12-18T22:34:05;2.70;99.90
20773;DHT22;10546;50.674;4.616;2022-12-18T22:36:42;2.80;99.90
20773;DHT22;10546;50.674;4.616;2022-12-18T22:39:16;2.80;99.90
20773;DHT22;10546;50.674;4.616;2022-12-18T22:41:42;2.80;99.90
20773;DHT22;10546;50.674;4.616;2022-12-18T22:44:08;2.80;99.90
20773;DHT22;10546;50.674;4.616;2022-12-18T22:46:36;2.80;99.90
20773;DHT22;10546;50.674;4.616;2022-12-18T22:49:03;2.80;99.90
20773;DHT22;10546;50.674;4.616;2022-12-18T22:51:28;2.80;99.90
20773;DHT22;10546;50.674;4.616;2022-12-18T22:53:54;2.80;99.90
20773;DHT22;10546;50.674;4.616;2022-12-18T22:56:20;2.80;99.90
20773;DHT22;10546;50.674;4.616;2022-12-18T22:58:50;2.80;99.90
20773;DHT22;10546;50.674;4.616;2022-12-18T23:01:21;2.80;99.90
20773;DHT22;10546;50.674;4.616;2022-12-18T23:03:48;2.90;99.90
20773;DHT22;10546;50.674;4.616;2022-12-18T23:06:15;2.90;99.90
20773;DHT22;10546;50.674;4.616;2022-12-18T23:08:40;3.00;99.90
20773;DHT22;10546;50.674;4.616;2022-12-18T23:11:06;3.00;99.90
20773;DHT22;10546;50.674;4.616;2022-12-18T23:13:32;3.10;99.90
20773;DHT22;10546;50.674;4.616;2022-12-18T23:15:58;3.10;99.90
20773;DHT22;10546;50.674;4.616;2022-12-18T23:18:24;3.20;99.90
20773;DHT22;10546;50.674;4.616;2022-12-18T23:20:50;3.20;99.90
20773;DHT22;10546;50.674;4.616;2022-12-18T23:23:16;3.20;99.90
20773;DHT22;10546;50.674;4.616;2022-12-18T23:25:41;3.30;99.90
20773;DHT22;10546;50.674;4.616;2022-12-18T23:28:07;3.30;99.90
20773;DHT22;10546;50.674;4.616;2022-12-18T23:30:32;3.40;99.90
20773;DHT22;10546;50.674;4.616;2022-12-18T23:32:58;3.40;99.90
20773;DHT22;10546;50.674;4.616;2022-12-18T23:35:24;3.50;99.90
20773;DHT22;10546;50.674;4.616;2022-12-18T23:37:50;3.50;99.90
20773;DHT22;10546;50.674;4.616;2022-12-18T23:40:15;3.50;99.90
20773;DHT22;10546;50.674;4.616;2022-12-18T23:42:41;3.60;99.90
20773;DHT22;10546;50.674;4.616;2022-12-18T23:45:07;3.60;99.90
20773;DHT22;10546;50.674;4.616;2022-12-18T23:47:34;3.70;99.90
20773;DHT22;10546;50.674;4.616;2022-12-18T23:49:59;3.80;99.90
20773;DHT22;10546;50.674;4.616;2022-12-18T23:52:25;3.80;99.90
20773;DHT22;10546;50.674;4.616;2022-12-18T23:54:51;3.90;99.90
20773;DHT22;10546;50.674;4.616;2022-12-18T23:57:17;3.90;99.90
20773;DHT22;10546;50.674;4.616;2022-12-18T23:59:42;4.00;99.90
